Occidental, CA (95465)

4:02 AM PDT on July 23, 2016 (GMT -0700)
Joy Road | | Change Station

Elev 1010 ft 38.40 °N, 122.98 °W | Updated 9 minutes ago

Clear
Clear
68.2 °F
Feels Like 68.2 °F
N
1.0
Wind Variable Wind from NW
Gusts 1.0 mph

Today
High -- | Low -- °F
--% Chance of Precip.
Yesterday
High -- | Low -- °F
Precip. -- in
Pressure 29.94 in
Visibility 9.0 miles
Clouds Clear
Dew Point 43 °F
Humidity 41%
Rainfall 0.00 in
Snow Depth Not available.
6:06 AM 8:29 PM
Waning Gibbous, 86% visible
METAR KSTS 231053Z AUTO 00000KT 9SM CLR 12/09 A2996 RMK AO2 SLP137 T01170094
Pressure 29.94 in
Visibility 9.0 miles
Clouds Clear
Dew Point 43 °F
Humidity 41%
Rainfall 0.00 in
Snow Depth Not available.
6:06 AM 8:29 PM
Waning Gibbous, 86% visible
METAR KSTS 231053Z AUTO 00000KT 9SM CLR 12/09 A2996 RMK AO2 SLP137 T01170094

10-Day Weather Forecast

Almanac

Astronomy

Jul. 23, 2016 Rise Set
Actual Time
Civil Twilight
Nautical Twilight
Astronomical Twilight
Moon
Length of Visible Light
Length of Day
Tomorrow will be .
, % of the Moon is Illuminated

Today's Extremes

State Highs State Lows

Community

WunderPhotos

Upload Photos

1,926,798 photos uploaded!

WunderBlog® & News

Nearby

Air Quality

  Air Quality AQ Index Pollutant
Not available.

Snow Depth

Station Depth Elevation

Earthquake Activity

City Distance Mag. Time & Date
Minimum magnitude displayed is 2.5.

Coastal Water Temperatures

Place Temperature

Stations

Nearby Weather Stations

Station Location Temp. Windchill Dew Point Humidity Wind Precip. Elev Updated Type
                   

Watches & Warnings

There are currently no watches in effect.